createdAt,value
2022-09-23T00:02:07.281Z,97977.35
2022-09-23T00:04:35.480Z,97975.48
2022-09-23T00:07:03.653Z,97978.20
2022-09-23T00:09:31.724Z,97973.49
2022-09-23T00:12:00.822Z,97974.65
2022-09-23T00:14:28.886Z,97970.82
2022-09-23T00:16:57.244Z,97970.46
2022-09-23T00:19:25.336Z,97965.03
2022-09-23T00:21:53.307Z,97963.77
2022-09-23T00:24:21.282Z,97961.12
2022-09-23T00:26:49.456Z,97961.90
2022-09-23T00:29:17.426Z,97961.81
2022-09-23T00:31:45.616Z,97963.33
2022-09-23T00:34:13.669Z,97963.52
2022-09-23T00:36:42.970Z,97965.95
2022-09-23T00:39:10.932Z,97966.31
2022-09-23T00:41:39.422Z,97966.77
2022-09-23T00:44:44.619Z,97958.56
2022-09-23T00:47:27.584Z,97961.63
2022-09-23T00:50:26.066Z,97961.51
2022-09-23T00:52:57.111Z,97960.36
2022-09-23T00:55:39.620Z,97960.66
2022-09-23T00:58:11.165Z,97961.84
2022-09-23T01:00:39.245Z,97961.50
2022-09-23T01:03:07.606Z,97964.38
2022-09-23T01:05:36.722Z,97966.90
2022-09-23T01:08:05.094Z,97964.05
2022-09-23T01:10:58.060Z,97967.80
2022-09-23T01:13:44.357Z,97969.94
2022-09-23T01:16:27.213Z,97969.78
2022-09-23T01:19:13.363Z,97970.15
2022-09-23T01:22:03.868Z,97970.19
2022-09-23T01:24:49.210Z,97975.77
2022-09-23T01:27:29.188Z,97976.42
2022-09-23T01:30:16.925Z,97976.86
2022-09-23T01:33:11.418Z,97975.93
2022-09-23T01:35:56.075Z,97978.55
2022-09-23T01:38:30.091Z,97981.58
2022-09-23T01:41:13.010Z,97980.42
2022-09-23T01:43:46.916Z,97983.73
2022-09-23T01:46:28.196Z,97982.34
2022-09-23T01:49:22.275Z,97981.81
2022-09-23T01:51:58.452Z,97977.81
2022-09-23T01:54:38.971Z,97976.63
2022-09-23T01:57:18.960Z,97979.17
2022-09-23T01:59:56.041Z,97982.22
2022-09-23T02:02:29.856Z,97987.83
2022-09-23T02:05:02.835Z,97987.32
2022-09-23T02:07:38.096Z,97988.02
2022-09-23T02:10:28.880Z,97990.29
2022-09-23T02:13:05.538Z,97991.77
2022-09-23T02:15:38.645Z,97994.90
2022-09-23T02:18:15.420Z,97993.69
2022-09-23T02:20:44.002Z,97993.02
2022-09-23T02:23:17.451Z,97988.37
2022-09-23T02:26:03.598Z,97988.41
2022-09-23T02:28:43.650Z,97987.59
2022-09-23T02:31:38.486Z,97987.83
2022-09-23T02:34:15.838Z,97988.40
2022-09-23T02:36:50.305Z,97991.55
2022-09-23T02:39:21.710Z,97991.13
2022-09-23T02:42:02.575Z,97991.51
2022-09-23T02:44:33.086Z,97990.36
2022-09-23T02:47:01.237Z,97991.95
2022-09-23T02:49:31.299Z,97989.92
2022-09-23T02:52:07.717Z,97990.80
2022-09-23T02:54:37.585Z,97990.17
2022-09-23T02:57:08.410Z,97987.46
2022-09-23T02:59:37.410Z,97984.21
2022-09-23T03:02:23.554Z,97988.33
2022-09-23T03:05:11.472Z,97985.05
2022-09-23T03:07:57.435Z,97986.86
2022-09-23T03:10:36.674Z,97987.80
2022-09-23T03:13:05.045Z,97989.69
2022-09-23T03:15:44.490Z,97992.42
2022-09-23T03:18:40.475Z,97991.70
2022-09-23T03:21:21.089Z,97993.73
2022-09-23T03:23:50.561Z,97992.28
2022-09-23T03:26:27.537Z,97993.76
2022-09-23T03:28:56.351Z,97993.80
2022-09-23T03:31:25.061Z,97994.85
2022-09-23T03:33:59.077Z,97994.01
2022-09-23T03:36:52.215Z,97992.11
2022-09-23T03:39:41.070Z,97994.23
2022-09-23T03:42:16.925Z,97992.14
2022-09-23T03:44:46.978Z,97994.38
2022-09-23T03:47:16.598Z,97992.47
2022-09-23T03:49:48.524Z,97994.40
2022-09-23T03:52:18.351Z,97992.08
2022-09-23T03:54:46.868Z,97989.29
2022-09-23T03:57:15.291Z,97989.07
2022-09-23T03:59:43.669Z,97987.19
2022-09-23T04:02:12.097Z,97986.46
2022-09-23T04:04:41.556Z,97989.32
2022-09-23T04:07:11.119Z,97988.44
2022-09-23T04:09:39.951Z,97987.10
2022-09-23T04:12:08.428Z,97980.99
2022-09-23T04:14:36.812Z,97977.41
2022-09-23T04:17:04.885Z,97976.58
2022-09-23T04:19:32.956Z,97980.23
2022-09-23T04:22:01.129Z,97977.92
2022-09-23T04:24:29.364Z,97980.80
2022-09-23T04:26:57.780Z,97977.07
2022-09-23T04:29:26.677Z,97972.48
2022-09-23T04:31:54.923Z,97971.90
2022-09-23T04:34:23.026Z,97973.86
2022-09-23T04:36:51.095Z,97973.06
2022-09-23T04:39:19.584Z,97972.82
2022-09-23T04:41:47.550Z,97976.30
2022-09-23T04:44:15.719Z,97978.52
2022-09-23T04:46:48.234Z,97982.27
2022-09-23T04:49:16.911Z,97985.30
2022-09-23T04:51:46.296Z,97990.26
2022-09-23T04:54:15.185Z,97990.94
2022-09-23T04:56:43.159Z,97989.24
2022-09-23T04:59:11.522Z,97987.20
2022-09-23T05:01:40.274Z,97984.92
2022-09-23T05:04:13.902Z,97984.61
2022-09-23T05:06:45.299Z,97983.53
2022-09-23T05:09:17.537Z,97982.48
2022-09-23T05:11:45.722Z,97979.61
2022-09-23T05:14:14.582Z,97979.29
2022-09-23T05:16:42.615Z,97982.14
2022-09-23T05:19:11.969Z,97987.41
2022-09-23T05:21:40.449Z,97989.81
2022-09-23T05:24:09.040Z,97989.48
2022-09-23T05:26:37.104Z,97989.92
2022-09-23T05:29:05.045Z,97989.04
2022-09-23T05:31:33.084Z,97993.13
2022-09-23T05:34:04.795Z,97991.99
2022-09-23T05:36:38.207Z,97991.06
2022-09-23T05:39:07.963Z,97995.73
2022-09-23T05:41:36.704Z,97999.54
2022-09-23T05:44:05.181Z,98001.64
2022-09-23T05:46:33.760Z,98002.87
2022-09-23T05:49:03.666Z,98006.94
2022-09-23T05:51:34.442Z,98006.69
2022-09-23T05:54:04.350Z,98006.83
2022-09-23T05:56:34.251Z,98014.11
2022-09-23T05:59:03.834Z,98012.52
2022-09-23T06:01:35.525Z,98017.35
2022-09-23T06:04:06.393Z,98017.58
2022-09-23T06:06:38.049Z,98019.11
2022-09-23T06:09:10.136Z,98021.41
2022-09-23T06:11:38.454Z,98021.27
2022-09-23T06:14:06.608Z,98021.48
2022-09-23T06:16:36.070Z,98020.18
2022-09-23T06:19:07.670Z,98019.54
2022-09-23T06:21:38.454Z,98020.77
2022-09-23T06:24:09.441Z,98024.02
2022-09-23T06:26:38.856Z,98028.95
2022-09-23T06:29:14.685Z,98025.61
2022-09-23T06:31:43.537Z,98029.34
2022-09-23T06:34:14.376Z,98033.44
2022-09-23T06:36:45.836Z,98033.08
2022-09-23T06:39:15.724Z,98032.35
2022-09-23T06:41:45.545Z,98030.69
2022-09-23T06:44:15.530Z,98030.04
2022-09-23T06:46:44.332Z,98029.00
2022-09-23T06:49:13.514Z,98030.38
2022-09-23T06:51:41.705Z,98032.30
2022-09-23T06:54:11.293Z,98033.49
2022-09-23T06:56:40.269Z,98034.89
2022-09-23T06:59:11.259Z,98034.57
2022-09-23T07:01:39.419Z,98034.15
2022-09-23T07:04:10.320Z,98038.41
2022-09-23T07:06:39.145Z,98041.82
2022-09-23T07:09:08.693Z,98043.40
2022-09-23T07:11:37.718Z,98046.92
2022-09-23T07:14:06.232Z,98045.95
2022-09-23T07:16:34.294Z,98044.40
2022-09-23T07:19:02.751Z,98044.10
2022-09-23T07:21:31.455Z,98045.77
2022-09-23T07:23:59.674Z,98042.96
2022-09-23T07:26:29.136Z,98041.90
2022-09-23T07:29:04.965Z,98043.52
2022-09-23T07:31:39.728Z,98043.98
2022-09-23T07:34:11.831Z,98044.82
2022-09-23T07:36:43.540Z,98047.27
2022-09-23T07:39:13.046Z,98046.29
2022-09-23T07:41:44.615Z,98049.33
2022-09-23T07:44:12.891Z,98050.01
2022-09-23T07:46:41.430Z,98051.67
2022-09-23T07:49:10.819Z,98056.13
2022-09-23T07:51:41.094Z,98052.88
2022-09-23T07:54:13.582Z,98054.33
2022-09-23T07:56:43.178Z,98054.61
2022-09-23T07:59:15.516Z,98056.30
2022-09-23T08:01:46.436Z,98057.06
2022-09-23T08:04:21.421Z,98056.67
2022-09-23T08:07:02.134Z,98051.52
2022-09-23T08:09:41.929Z,98050.77
2022-09-23T08:12:16.050Z,98049.67
2022-09-23T08:14:44.421Z,98049.32
2022-09-23T08:17:13.245Z,98046.77
2022-09-23T08:19:41.279Z,98041.97
2022-09-23T08:22:09.461Z,98043.77
2022-09-23T08:24:37.424Z,98042.30
2022-09-23T08:27:06.223Z,98041.89
2022-09-23T08:29:34.998Z,98043.83
2022-09-23T08:32:02.979Z,98044.20
2022-09-23T08:34:31.353Z,98044.45
2022-09-23T08:36:59.628Z,98040.56
2022-09-23T08:39:27.600Z,98040.16
2022-09-23T08:42:17.894Z,98039.14
2022-09-23T08:44:53.436Z,98039.14
2022-09-23T08:47:27.995Z,98035.77
2022-09-23T08:50:02.945Z,98033.67
2022-09-23T08:52:43.150Z,98035.88
2022-09-23T08:55:16.140Z,98028.15
2022-09-23T08:58:23.853Z,98026.31
2022-09-23T09:01:21.112Z,98025.21
2022-09-23T09:03:55.103Z,98019.38
2022-09-23T09:06:41.884Z,98013.90
2022-09-23T09:09:37.874Z,98011.08
2022-09-23T09:12:35.985Z,98013.24
2022-09-23T09:15:08.039Z,98011.20
2022-09-23T09:17:48.655Z,98011.38
2022-09-23T09:20:28.810Z,98016.90
2022-09-23T09:23:00.156Z,98015.21
2022-09-23T09:25:49.733Z,98009.80
2022-09-23T09:28:26.710Z,98010.28
2022-09-23T09:31:00.052Z,98004.84
2022-09-23T09:33:37.104Z,98006.11
2022-09-23T09:36:36.458Z,98006.52
2022-09-23T09:39:05.246Z,98006.68
2022-09-23T09:41:33.459Z,98002.21
2022-09-23T09:44:10.277Z,98003.48
2022-09-23T09:46:54.775Z,98003.13
2022-09-23T09:49:28.168Z,98001.05
2022-09-23T09:52:38.915Z,98007.37
2022-09-23T09:55:12.822Z,98001.77
2022-09-23T09:57:44.257Z,98000.70
2022-09-23T10:00:25.549Z,98000.50
2022-09-23T10:03:01.607Z,97997.57
2022-09-23T10:05:47.182Z,97997.20
2022-09-23T10:08:35.126Z,97995.03
2022-09-23T10:11:15.386Z,97993.96
2022-09-23T10:14:06.797Z,97988.34
2022-09-23T10:16:35.221Z,97990.11
2022-09-23T10:19:11.648Z,97990.13
2022-09-23T10:21:42.478Z,97989.23
2022-09-23T10:24:23.276Z,97985.35
2022-09-23T10:27:00.439Z,97985.54
2022-09-23T10:29:33.990Z,97985.84
2022-09-23T10:32:30.168Z,97984.07
2022-09-23T10:35:06.942Z,97978.44
2022-09-23T10:37:39.624Z,97975.50
2022-09-23T10:40:35.361Z,97969.25
2022-09-23T10:43:48.578Z,97965.83
2022-09-23T10:46:46.250Z,97961.63
2022-09-23T10:49:45.197Z,97958.09
2022-09-23T10:52:36.477Z,97957.63
2022-09-23T10:55:23.086Z,97955.35
2022-09-23T10:58:00.767Z,97950.63
2022-09-23T11:00:39.319Z,97951.67
2022-09-23T11:03:17.640Z,97951.46
2022-09-23T11:06:00.937Z,97948.78
2022-09-23T11:08:59.437Z,97949.31
2022-09-23T11:11:49.312Z,97947.68
2022-09-23T11:14:26.161Z,97948.12
2022-09-23T11:17:14.967Z,97945.56
2022-09-23T11:19:45.548Z,97942.45
2022-09-23T11:22:41.082Z,97943.60
2022-09-23T11:25:46.806Z,97940.31
2022-09-23T11:28:33.180Z,97940.96
2022-09-23T11:31:21.442Z,97944.37
2022-09-23T11:34:12.602Z,97944.30
2022-09-23T11:36:49.122Z,97937.04
2022-09-23T11:39:29.539Z,97932.90
2022-09-23T11:42:01.814Z,97927.98
2022-09-23T11:44:36.795Z,97923.83
2022-09-23T11:47:11.905Z,97915.96
2022-09-23T11:49:53.978Z,97909.90
2022-09-23T11:52:24.927Z,97907.52
2022-09-23T11:54:58.749Z,97905.27
2022-09-23T11:57:49.002Z,97904.77
2022-09-23T12:00:28.251Z,97907.27
2022-09-23T12:03:09.538Z,97907.30
2022-09-23T12:06:00.215Z,97905.71
2022-09-23T12:08:33.699Z,97905.41
2022-09-23T12:11:10.618Z,97902.41
2022-09-23T12:14:12.271Z,97903.80
2022-09-23T12:16:46.142Z,97902.89
2022-09-23T12:19:38.903Z,97901.61
2022-09-23T12:22:50.730Z,97899.22
2022-09-23T12:25:33.547Z,97895.01
2022-09-23T12:28:11.868Z,97898.18
2022-09-23T12:30:41.473Z,97892.45
2022-09-23T12:33:28.538Z,97895.34
2022-09-23T12:36:12.336Z,97894.34
2022-09-23T12:38:46.651Z,97887.69
2022-09-23T12:41:26.707Z,97885.92
2022-09-23T12:44:13.636Z,97889.48
2022-09-23T12:46:46.199Z,97886.96
2022-09-23T12:49:29.218Z,97878.70
2022-09-23T12:52:12.338Z,97880.08
2022-09-23T12:54:42.048Z,97877.50
2022-09-23T12:57:11.459Z,97872.94
2022-09-23T12:59:51.335Z,97872.55
2022-09-23T13:02:25.106Z,97874.41
2022-09-23T13:05:36.357Z,97876.30
2022-09-23T13:08:25.029Z,97878.39
2022-09-23T13:10:58.135Z,97881.28
2022-09-23T13:13:41.836Z,97884.48
2022-09-23T13:16:33.263Z,97884.84
2022-09-23T13:19:04.642Z,97887.65
2022-09-23T13:21:42.451Z,97887.30
2022-09-23T13:24:13.202Z,97886.09
2022-09-23T13:26:45.869Z,97887.85
2022-09-23T13:29:23.903Z,97892.84
2022-09-23T13:31:52.705Z,97888.25
2022-09-23T13:34:24.799Z,97887.36
2022-09-23T13:36:53.709Z,97886.63
2022-09-23T13:39:29.202Z,97887.06
2022-09-23T13:42:04.716Z,97885.66
2022-09-23T13:44:32.884Z,97886.80
2022-09-23T13:47:03.428Z,97892.02
2022-09-23T13:49:36.498Z,97894.39
2022-09-23T13:52:04.576Z,97898.91
2022-09-23T13:54:50.243Z,97895.20
2022-09-23T13:57:44.679Z,97900.85
2022-09-23T14:00:21.388Z,97902.45
2022-09-23T14:02:49.491Z,97899.63
2022-09-23T14:05:26.395Z,97897.45
2022-09-23T14:07:56.414Z,97900.02
2022-09-23T14:10:27.868Z,97903.21
2022-09-23T14:12:57.043Z,97901.39
2022-09-23T14:15:25.493Z,97898.18
2022-09-23T14:17:59.670Z,97903.83
2022-09-23T14:20:27.814Z,97902.90
2022-09-23T14:23:14.230Z,97902.67
2022-09-23T14:25:46.278Z,97900.52
2022-09-23T14:28:17.082Z,97903.88
2022-09-23T14:30:48.256Z,97904.37
2022-09-23T14:33:32.236Z,97903.31
2022-09-23T14:36:29.255Z,97902.80
2022-09-23T14:39:12.480Z,97903.17
2022-09-23T14:41:44.443Z,97900.03
2022-09-23T14:44:22.934Z,97904.42
2022-09-23T14:47:00.149Z,97903.39
2022-09-23T14:49:28.430Z,97903.59
2022-09-23T14:52:05.916Z,97906.07
2022-09-23T14:54:39.812Z,97904.05
2022-09-23T14:57:23.507Z,97906.73
2022-09-23T15:00:00.421Z,97904.59
2022-09-23T15:02:37.837Z,97902.96
2022-09-23T15:05:13.040Z,97898.80
2022-09-23T15:07:41.975Z,97892.23
2022-09-23T15:10:20.019Z,97891.17
2022-09-23T15:12:50.528Z,97887.54
2022-09-23T15:15:19.685Z,97881.48
2022-09-23T15:17:48.082Z,97877.05
2022-09-23T15:20:16.054Z,97879.88
2022-09-23T15:22:50.078Z,97880.61
2022-09-23T15:25:41.383Z,97882.25
2022-09-23T15:28:09.345Z,97883.44
2022-09-23T15:30:38.544Z,97884.36
2022-09-23T15:33:07.132Z,97881.34
2022-09-23T15:35:36.624Z,97881.73
2022-09-23T15:38:04.730Z,97881.75
2022-09-23T15:40:35.281Z,97883.35
2022-09-23T15:43:21.193Z,97881.08
2022-09-23T15:45:53.312Z,97884.83
2022-09-23T15:48:27.849Z,97887.96
2022-09-23T15:50:56.099Z,97890.34
2022-09-23T15:53:27.149Z,97892.36
2022-09-23T15:55:55.207Z,97897.38
2022-09-23T15:58:25.248Z,97902.81
2022-09-23T16:00:57.470Z,97905.61
2022-09-23T16:03:30.082Z,97906.59
2022-09-23T16:06:02.351Z,97906.11
2022-09-23T16:08:33.193Z,97906.95
2022-09-23T16:11:01.663Z,97907.63
2022-09-23T16:13:29.844Z,97913.79
2022-09-23T16:15:57.881Z,97913.92
2022-09-23T16:18:26.187Z,97913.45
2022-09-23T16:20:54.786Z,97912.53
2022-09-23T16:23:34.824Z,97909.20
2022-09-23T16:26:14.037Z,97913.98
2022-09-23T16:28:43.263Z,97910.67
2022-09-23T16:31:12.130Z,97910.95
2022-09-23T16:33:40.530Z,97917.66
2022-09-23T16:36:22.121Z,97921.97
2022-09-23T16:38:50.704Z,97925.27
2022-09-23T16:41:18.779Z,97930.24
2022-09-23T16:43:47.253Z,97925.88
2022-09-23T16:46:17.329Z,97924.55
2022-09-23T16:48:52.133Z,97925.87
2022-09-23T16:51:23.914Z,97926.90
2022-09-23T16:53:55.557Z,97931.35
2022-09-23T16:56:28.862Z,97933.44
2022-09-23T16:58:57.400Z,97936.54
2022-09-23T17:01:46.109Z,97936.05
2022-09-23T17:04:17.089Z,97938.41
2022-09-23T17:06:50.633Z,97942.20
2022-09-23T17:09:20.703Z,97942.57
2022-09-23T17:12:15.718Z,97940.23
2022-09-23T17:14:43.991Z,97937.71
2022-09-23T17:17:11.961Z,97943.42
2022-09-23T17:19:41.642Z,97941.14
2022-09-23T17:22:10.257Z,97943.64
2022-09-23T17:24:38.327Z,97946.07
2022-09-23T17:27:06.421Z,97950.89
2022-09-23T17:29:34.679Z,97949.32
2022-09-23T17:32:05.201Z,97947.44
2022-09-23T17:34:33.588Z,97946.83
2022-09-23T17:37:02.623Z,97947.40
2022-09-23T17:39:31.783Z,97947.86
2022-09-23T17:41:59.845Z,97952.41
2022-09-23T17:44:27.811Z,97950.70
2022-09-23T17:46:56.093Z,97949.56
2022-09-23T17:49:24.581Z,97950.05
2022-09-23T17:51:52.685Z,97952.71
2022-09-23T17:54:20.721Z,97955.35
2022-09-23T17:56:48.685Z,97954.07
2022-09-23T17:59:16.915Z,97955.48
2022-09-23T18:01:44.975Z,97957.12
2022-09-23T18:04:13.215Z,97957.90
2022-09-23T18:06:41.381Z,97954.05
2022-09-23T18:09:10.457Z,97957.66
2022-09-23T18:11:40.458Z,97956.41
2022-09-23T18:14:15.542Z,97955.80
2022-09-23T18:16:46.229Z,97958.64
2022-09-23T18:19:19.900Z,97967.14
2022-09-23T18:21:54.549Z,97971.88
2022-09-23T18:24:38.927Z,97972.09
2022-09-23T18:27:07.638Z,97973.52
2022-09-23T18:29:36.335Z,97969.48
2022-09-23T18:32:04.483Z,97967.13
2022-09-23T18:34:33.283Z,97964.73
2022-09-23T18:37:01.253Z,97960.81
2022-09-23T18:39:29.321Z,97960.69
2022-09-23T18:41:57.292Z,97961.75
2022-09-23T18:44:25.672Z,97962.00
2022-09-23T18:46:53.742Z,97964.09
2022-09-23T18:49:40.460Z,97965.11
2022-09-23T18:52:08.525Z,97965.33
2022-09-23T18:54:36.600Z,97966.27
2022-09-23T18:57:05.383Z,97966.94
2022-09-23T18:59:33.621Z,97968.33
2022-09-23T19:02:02.623Z,97969.65
2022-09-23T19:04:30.939Z,97969.90
2022-09-23T19:06:59.106Z,97971.89
2022-09-23T19:09:27.286Z,97978.90
2022-09-23T19:11:55.352Z,97982.27
2022-09-23T19:14:23.697Z,97978.98
2022-09-23T19:16:52.180Z,97974.79
2022-09-23T19:19:20.186Z,97977.80
2022-09-23T19:21:48.258Z,97974.16
2022-09-23T19:24:20.173Z,97973.54
2022-09-23T19:26:49.010Z,97978.59
2022-09-23T19:29:22.087Z,97980.52
2022-09-23T19:31:51.222Z,97980.03
2022-09-23T19:34:26.067Z,97982.91
2022-09-23T19:36:57.460Z,97982.45
2022-09-23T19:39:30.599Z,97982.23
2022-09-23T19:41:59.247Z,97983.23
2022-09-23T19:44:27.938Z,97980.52
2022-09-23T19:46:57.438Z,97982.61
2022-09-23T19:49:25.865Z,97986.80
2022-09-23T19:51:56.073Z,97987.88
2022-09-23T19:54:27.704Z,97989.88
2022-09-23T19:56:55.976Z,97992.79
2022-09-23T19:59:26.621Z,97995.38
2022-09-23T20:01:55.031Z,97994.61
2022-09-23T20:04:23.260Z,97996.59
2022-09-23T20:06:51.228Z,98001.73
2022-09-23T20:09:19.301Z,98000.20
2022-09-23T20:11:47.904Z,98001.08
2022-09-23T20:14:18.004Z,98002.00
2022-09-23T20:16:46.487Z,98000.36
2022-09-23T20:19:15.333Z,98006.21
2022-09-23T20:21:43.224Z,98004.27
2022-09-23T20:24:12.553Z,98005.61
2022-09-23T20:26:59.251Z,98008.27
2022-09-23T20:29:27.228Z,98007.44
2022-09-23T20:31:56.836Z,98009.20
2022-09-23T20:34:24.906Z,98009.20
2022-09-23T20:36:52.838Z,98006.77
2022-09-23T20:39:21.145Z,98007.11
2022-09-23T20:41:49.935Z,98006.61
2022-09-23T20:44:18.448Z,98007.88
2022-09-23T20:46:48.931Z,98008.41
2022-09-23T20:49:18.147Z,98006.89
2022-09-23T20:51:50.266Z,98007.98
2022-09-23T20:54:19.345Z,98009.55
2022-09-23T20:56:48.024Z,98011.30
2022-09-23T20:59:18.188Z,98011.90
2022-09-23T21:01:47.904Z,98011.13
2022-09-23T21:04:16.718Z,98009.46
2022-09-23T21:06:45.024Z,98010.42
2022-09-23T21:09:13.062Z,98009.64
2022-09-23T21:11:41.235Z,98013.36
2022-09-23T21:14:09.689Z,98015.02
2022-09-23T21:16:38.344Z,98016.23
2022-09-23T21:19:08.620Z,98016.66
2022-09-23T21:21:36.714Z,98016.84
2022-09-23T21:24:31.371Z,98017.98
2022-09-23T21:26:53.430Z,98017.84
2022-09-23T21:29:21.926Z,98018.51
2022-09-23T21:31:50.219Z,98015.80
2022-09-23T21:34:19.588Z,98016.73
2022-09-23T21:36:48.483Z,98016.34
2022-09-23T21:39:16.763Z,98021.33
2022-09-23T21:41:45.049Z,98021.61
2022-09-23T21:44:12.994Z,98020.90
2022-09-23T21:46:41.071Z,98018.86
2022-09-23T21:49:09.317Z,98018.59
2022-09-23T21:51:41.265Z,98018.30
2022-09-23T21:54:15.971Z,98017.33
2022-09-23T21:56:44.850Z,98016.27
2022-09-23T21:59:13.049Z,98013.64
2022-09-23T22:01:44.625Z,98008.67
2022-09-23T22:04:18.799Z,98008.19
2022-09-23T22:06:49.041Z,98010.23
2022-09-23T22:09:20.569Z,98010.14
2022-09-23T22:12:07.362Z,98010.08
2022-09-23T22:14:36.559Z,98007.61
2022-09-23T22:17:06.873Z,98005.98
2022-09-23T22:19:40.253Z,98004.46
2022-09-23T22:22:13.583Z,97999.42
2022-09-23T22:24:46.821Z,97996.16
2022-09-23T22:27:17.675Z,97998.27
2022-09-23T22:30:04.524Z,97994.41
2022-09-23T22:32:41.890Z,97994.89
2022-09-23T22:35:19.397Z,97996.08
2022-09-23T22:37:48.801Z,97993.09
2022-09-23T22:40:17.149Z,97995.09
2022-09-23T22:42:45.968Z,97996.87
2022-09-23T22:45:14.176Z,97998.02
2022-09-23T22:47:45.783Z,97997.64
2022-09-23T22:50:14.993Z,98003.08
2022-09-23T22:52:43.891Z,98005.05
2022-09-23T22:55:12.584Z,98006.73
2022-09-23T22:57:41.063Z,98002.38
2022-09-23T23:00:12.201Z,98006.68
2022-09-23T23:02:40.477Z,98009.25
2022-09-23T23:05:08.964Z,98009.61
2022-09-23T23:07:37.433Z,98009.95
2022-09-23T23:10:10.279Z,98016.38
2022-09-23T23:12:39.731Z,98018.09
2022-09-23T23:15:11.797Z,98019.98
2022-09-23T23:17:41.396Z,98022.27
2022-09-23T23:20:09.522Z,98019.52
2022-09-23T23:22:37.650Z,98019.16
2022-09-23T23:25:06.331Z,98019.00
2022-09-23T23:27:34.712Z,98019.52
2022-09-23T23:30:02.679Z,98018.33
2022-09-23T23:32:31.159Z,98017.84
2022-09-23T23:34:59.233Z,98018.52
2022-09-23T23:37:30.159Z,98016.63
2022-09-23T23:39:58.247Z,98016.21
2022-09-23T23:42:27.353Z,98016.36
2022-09-23T23:44:55.317Z,98017.14
2022-09-23T23:47:24.200Z,98016.54
2022-09-23T23:49:52.156Z,98018.27
2022-09-23T23:52:20.243Z,98015.36
2022-09-23T23:54:48.318Z,98016.46
2022-09-23T23:57:16.227Z,98013.23
2022-09-23T23:59:44.255Z,98013.61
